Time;durP1;ratioP1;P1;durP2;ratioP2;P2;SDS_P1;SDS_P2;PMS_P1;PMS_P2;Temp;Humidity;BMP_temperature;BMP_pressure;BME280_temperature;BME280_humidity;BME280_pressure;Samples;Min_cycle;Max_cycle;Signal;HPM_P1;HPM_P2
2023/06/12 00:00:51;;;;;;;;;;;;;;;;;;6203967;23;20020;-48
2023/06/12 00:03:25;;;;;;;4.80;2.95;;;;;;;;;;6204603;23;19959;-48
2023/06/12 00:06:05;;;;;;;7.43;2.58;;;;;;;;;;6204481;23;20021;-56
2023/06/12 00:08:42;;;;;;;3.38;2.20;;;;;;;;;;6203589;23;20083;-58
2023/06/12 00:11:12;;;;;;;2.35;2.15;;;;;;;;;;6152993;23;20032;-58
2023/06/12 00:13:46;;;;;;;3.95;2.30;;;;;;;;;;6203812;23;20024;-58
2023/06/12 00:16:15;;;;;;;4.88;2.55;;;;;;;;;;6203887;23;20024;-57
2023/06/12 00:18:43;;;;;;;8.15;3.00;;;;;;;;;;6207416;23;20489;-59
2023/06/12 00:21:17;;;;;;;9.52;2.85;;;;;;;;;;6205442;23;20075;-55
2023/06/12 00:23:44;;;;;;;9.20;2.17;;;;;;;;;;6206666;23;20083;-53
2023/06/12 00:26:11;;;;;;;6.75;2.40;;;;;;;;;;6206583;23;20116;-57
2023/06/12 00:28:46;;;;;;;6.43;2.30;;;;;;;;;;6204423;23;20454;-55
2023/06/12 00:31:13;;;;;;;7.57;2.47;;;;;;;;;;6207041;23;20127;-44
2023/06/12 00:33:41;;;;;;;7.80;2.95;;;;;;;;;;6207329;23;20024;-49
2023/06/12 00:36:14;;;;;;;4.47;2.45;;;;;;;;;;6204856;23;20021;-48
2023/06/12 00:38:42;;;;;;;7.10;2.47;;;;;;;;;;6203434;23;20020;-45
2023/06/12 00:41:15;;;;;;;7.40;2.67;;;;;;;;;;6207172;23;20040;-49
2023/06/12 00:43:43;;;;;;;4.70;2.78;;;;;;;;;;6206573;23;20082;-46
2023/06/12 00:46:10;;;;;;;8.02;3.25;;;;;;;;;;6205553;23;20087;-45
2023/06/12 00:48:45;;;;;;;5.07;2.60;;;;;;;;;;6203734;23;20031;-44
2023/06/12 00:51:12;;;;;;;2.90;2.50;;;;;;;;;;6206786;23;20024;-51
2023/06/12 00:53:54;;;;;;;5.47;2.70;;;;;;;;;;6203232;23;20571;-50
2023/06/12 00:56:21;;;;;;;4.22;2.75;;;;;;;;;;6204667;23;20466;-45
2023/06/12 00:58:56;;;;;;;8.35;2.63;;;;;;;;;;6206667;23;20024;-48
2023/06/12 01:01:25;;;;;;;3.88;2.58;;;;;;;;;;6205327;23;20090;-52
2023/06/12 01:03:57;;;;;;;5.43;2.80;;;;;;;;;;6206637;23;20437;-47
2023/06/12 01:06:39;;;;;;;7.47;3.00;;;;;;;;;;6206666;23;20395;-46
2023/06/12 01:09:16;;;;;;;6.90;3.08;;;;;;;;;;6206195;23;20021;-53
2023/06/12 01:11:52;;;;;;;5.50;2.70;;;;;;;;;;6208098;23;20025;-46
2023/06/12 01:14:21;;;;;;;4.75;2.55;;;;;;;;;;6205939;23;20686;-49
2023/06/12 01:16:58;;;;;;;6.32;2.83;;;;;;;;;;6207454;23;20091;-42
2023/06/12 01:19:25;;;;;;;7.07;2.88;;;;;;;;;;6205994;23;20099;-48
2023/06/12 01:21:58;;;;;;;5.85;3.08;;;;;;;;;;6207281;23;20060;-49
2023/06/12 01:24:35;;;;;;;4.15;2.83;;;;;;;;;;6204631;23;20024;-47
2023/06/12 01:27:03;;;;;;;9.40;2.80;;;;;;;;;;6207411;23;20025;-46
2023/06/12 01:29:42;;;;;;;5.75;2.60;;;;;;;;;;6205321;23;20031;-46
2023/06/12 01:32:16;;;;;;;6.40;2.83;;;;;;;;;;6206855;23;20079;-45
2023/06/12 01:35:00;;;;;;;7.15;3.05;;;;;;;;;;6206660;23;20024;-45
2023/06/12 01:37:33;;;;;;;10.18;2.90;;;;;;;;;;6206349;23;20442;-44
2023/06/12 01:40:08;;;;;;;8.73;2.70;;;;;;;;;;6205181;23;20028;-49
2023/06/12 01:42:36;;;;;;;6.30;2.63;;;;;;;;;;6202752;23;20027;-46
2023/06/12 01:45:04;;;;;;;7.88;2.80;;;;;;;;;;6206263;23;20340;-42
2023/06/12 01:47:37;;;;;;;2.92;2.45;;;;;;;;;;6205443;23;20024;-44
2023/06/12 01:50:05;;;;;;;6.07;2.58;;;;;;;;;;6206027;23;20405;-46
2023/06/12 01:52:51;;;;;;;6.15;2.90;;;;;;;;;;6207128;23;20928;-50
2023/06/12 01:55:27;;;;;;;5.47;2.50;;;;;;;;;;6206956;23;20024;-45
2023/06/12 01:58:02;;;;;;;5.68;2.88;;;;;;;;;;6204899;23;20029;-49
2023/06/12 02:00:30;;;;;;;;;;;;;;;;;;6206595;23;20021;-50
2023/06/12 02:02:57;;;;;;;6.25;2.80;;;;;;;;;;6202759;23;19927;-50
2023/06/12 02:05:31;;;;;;;6.50;2.60;;;;;;;;;;6206006;23;20021;-49
2023/06/12 02:07:58;;;;;;;8.68;3.08;;;;;;;;;;6207276;23;20099;-50
2023/06/12 02:10:32;;;;;;;5.63;3.22;;;;;;;;;;6207115;23;20025;-47
2023/06/12 02:12:59;;;;;;;6.25;3.13;;;;;;;;;;6205449;23;20027;-50
2023/06/12 02:15:28;;;;;;;6.13;2.55;;;;;;;;;;6206904;23;20025;-47
2023/06/12 02:18:02;;;;;;;8.55;2.60;;;;;;;;;;6207588;23;20028;-50
2023/06/12 02:20:29;;;;;;;4.22;2.70;;;;;;;;;;6208101;23;20039;-52
2023/06/12 02:22:56;;;;;;;5.30;2.95;;;;;;;;;;6209121;23;20079;-49
2023/06/12 02:25:30;;;;;;;10.00;2.90;;;;;;;;;;6208627;23;20016;-49
2023/06/12 02:27:59;;;;;;;6.32;3.05;;;;;;;;;;6208172;23;20397;-49
2023/06/12 02:30:26;;;;;;;5.90;3.10;;;;;;;;;;6208913;23;20083;-48
2023/06/12 02:33:02;;;;;;;4.80;2.90;;;;;;;;;;6206563;23;20078;-48
2023/06/12 02:35:30;;;;;;;8.90;3.20;;;;;;;;;;6205863;23;20024;-46
2023/06/12 02:38:04;;;;;;;11.13;3.00;;;;;;;;;;6208007;23;20016;-47
2023/06/12 02:40:31;;;;;;;12.52;3.05;;;;;;;;;;6204335;23;20028;-50
2023/06/12 02:42:58;;;;;;;4.75;3.13;;;;;;;;;;6204492;23;20936;-51
2023/06/12 02:45:32;;;;;;;3.53;2.90;;;;;;;;;;6208235;23;20083;-49
2023/06/12 02:47:59;;;;;;;9.07;3.28;;;;;;;;;;6204982;23;20392;-51
2023/06/12 02:50:26;;;;;;;15.80;3.55;;;;;;;;;;6204350;23;20032;-43
2023/06/12 02:53:12;;;;;;;9.13;3.22;;;;;;;;;;6207894;23;20533;-44
2023/06/12 02:55:46;;;;;;;5.00;2.78;;;;;;;;;;6204275;23;20024;-49
2023/06/12 02:58:21;;;;;;;7.95;2.92;;;;;;;;;;6206386;23;20029;-49
2023/06/12 03:00:48;;;;;;;;;;;;;;;;;;6208195;23;20029;-47
2023/06/12 03:03:16;;;;;;;5.22;3.17;;;;;;;;;;6204818;23;19974;-49
2023/06/12 03:05:50;;;;;;;6.00;2.72;;;;;;;;;;6205620;23;20029;-46
2023/06/12 03:08:18;;;;;;;8.20;3.13;;;;;;;;;;6207366;23;20040;-49
2023/06/12 03:10:52;;;;;;;5.95;2.95;;;;;;;;;;6207811;23;20103;-49
2023/06/12 03:13:20;;;;;;;7.00;3.13;;;;;;;;;;6207211;23;20035;-47
2023/06/12 03:15:55;;;;;;;5.88;3.30;;;;;;;;;;6207344;23;20021;-46
2023/06/12 03:18:22;;;;;;;7.65;3.40;;;;;;;;;;6180917;23;20020;-51
2023/06/12 03:20:55;;;;;;;6.25;3.72;;;;;;;;;;6203703;23;20394;-59
2023/06/12 03:23:23;;;;;;;6.28;3.13;;;;;;;;;;6204644;23;20592;-55
2023/06/12 03:25:57;;;;;;;11.50;3.20;;;;;;;;;;6208908;23;20079;-57
2023/06/12 03:28:24;;;;;;;7.47;2.83;;;;;;;;;;6204291;23;20024;-58
2023/06/12 03:30:51;;;;;;;12.63;3.30;;;;;;;;;;6204749;23;20032;-58
2023/06/12 03:33:26;;;;;;;7.43;3.55;;;;;;;;;;6207531;23;20709;-59
2023/06/12 03:35:53;;;;;;;7.53;3.58;;;;;;;;;;6201944;23;20082;-58
2023/06/12 03:38:28;;;;;;;5.30;3.08;;;;;;;;;;6205396;23;20024;-49
2023/06/12 03:40:55;;;;;;;6.68;3.17;;;;;;;;;;6205938;23;20020;-53
2023/06/12 03:43:22;;;;;;;7.63;3.53;;;;;;;;;;6205279;23;20087;-51
2023/06/12 03:45:56;;;;;;;7.82;3.65;;;;;;;;;;6204741;23;20094;-52
2023/06/12 03:48:23;;;;;;;5.45;3.17;;;;;;;;;;6202295;23;20588;-57
2023/06/12 03:50:56;;;;;;;4.25;3.35;;;;;;;;;;6207569;23;20020;-47
2023/06/12 03:53:36;;;;;;;6.07;3.58;;;;;;;;;;6206446;23;20125;-46
2023/06/12 03:56:11;;;;;;;7.82;3.20;;;;;;;;;;6206994;23;20028;-47
2023/06/12 03:58:38;;;;;;;8.57;3.35;;;;;;;;;;6204845;23;20028;-45
2023/06/12 04:01:05;;;;;;;9.35;3.08;;;;;;;;;;6200689;23;20020;-49
2023/06/12 04:03:38;;;;;;;9.13;3.70;;;;;;;;;;6203126;23;20021;-48
2023/06/12 04:06:06;;;;;;;6.90;3.20;;;;;;;;;;6208763;23;20024;-45
2023/06/12 04:08:33;;;;;;;5.43;2.50;;;;;;;;;;6206981;23;20541;-50
2023/06/12 04:11:13;;;;;;;7.60;3.20;;;;;;;;;;6205354;23;20021;-47
2023/06/12 04:13:41;;;;;;;7.63;3.30;;;;;;;;;;6206928;23;20025;-45
2023/06/12 04:16:15;;;;;;;5.82;2.80;;;;;;;;;;6206565;23;20605;-52
2023/06/12 04:18:42;;;;;;;;;;;;;;;;;;6201585;23;20602;-59
2023/06/12 04:21:11;;;;;;;9.43;3.22;;;;;;;;;;6206381;23;19923;-57
2023/06/12 04:23:47;;;;;;;7.07;2.95;;;;;;;;;;6206462;23;20083;-58
2023/06/12 04:26:15;;;;;;;7.97;3.03;;;;;;;;;;6201783;23;20520;-59
2023/06/12 04:28:42;;;;;;;5.68;3.22;;;;;;;;;;6204665;23;20502;-57
2023/06/12 04:31:16;;;;;;;5.65;2.63;;;;;;;;;;6206642;23;20020;-59
2023/06/12 04:33:43;;;;;;;4.22;2.88;;;;;;;;;;6205994;23;20031;-55
2023/06/12 04:36:21;;;;;;;5.35;2.67;;;;;;;;;;6204391;23;20111;-47
2023/06/12 04:38:50;;;;;;;6.80;2.75;;;;;;;;;;6206392;23;20028;-44
2023/06/12 04:41:19;;;;;;;6.43;2.70;;;;;;;;;;6206154;23;20025;-45
2023/06/12 04:43:58;;;;;;;7.18;2.60;;;;;;;;;;6203868;23;20427;-43
2023/06/12 04:46:28;;;;;;;5.20;2.80;;;;;;;;;;6203639;23;20875;-47
2023/06/12 04:49:02;;;;;;;7.35;2.97;;;;;;;;;;6202381;23;20032;-57
2023/06/12 04:51:29;;;;;;;;;;;;;;;;;;6201628;23;20034;-56
2023/06/12 04:53:57;;;;;;;7.97;2.92;;;;;;;;;;6202992;23;20253;-59
2023/06/12 04:56:40;;;;;;;7.03;3.00;;;;;;;;;;6200444;23;20471;-59
2023/06/12 04:59:08;;;;;;;3.97;2.88;;;;;;;;;;6200223;23;20670;-59
2023/06/12 05:01:44;;;;;;;6.05;2.60;;;;;;;;;;6202951;23;20347;-58
2023/06/12 05:04:11;;;;;;;4.55;2.53;;;;;;;;;;6203076;23;20071;-49
2023/06/12 05:06:41;;;;;;;5.75;2.97;;;;;;;;;;6205898;23;20470;-46
2023/06/12 05:09:16;;;;;;;4.18;2.63;;;;;;;;;;6206203;23;20525;-51
2023/06/12 05:11:43;;;;;;;6.97;2.80;;;;;;;;;;6208770;23;20536;-46
2023/06/12 05:14:17;;;;;;;6.30;2.70;;;;;;;;;;6206595;23;20024;-52
2023/06/12 05:16:46;;;;;;;11.65;2.63;;;;;;;;;;6205711;23;20501;-50
2023/06/12 05:19:14;;;;;;;4.85;2.78;;;;;;;;;;6206546;23;20475;-49
2023/06/12 05:21:49;;;;;;;2.95;2.55;;;;;;;;;;6208667;23;20028;-43
2023/06/12 05:24:16;;;;;;;7.70;2.40;;;;;;;;;;6206723;23;20035;-47
2023/06/12 05:26:50;;;;;;;5.50;2.47;;;;;;;;;;6208545;23;20031;-43
2023/06/12 05:29:17;;;;;;;4.85;2.65;;;;;;;;;;6205261;23;20016;-46
2023/06/12 05:31:51;;;;;;;5.82;2.53;;;;;;;;;;6205730;23;20533;-57
2023/06/12 05:34:18;;;;;;;4.43;2.40;;;;;;;;;;6207299;23;20079;-46
2023/06/12 05:36:45;;;;;;;5.18;2.50;;;;;;;;;;6207872;23;20025;-52
2023/06/12 05:39:18;;;;;;;6.57;2.83;;;;;;;;;;6206030;23;20032;-51
2023/06/12 05:41:46;;;;;;;6.53;2.50;;;;;;;;;;6208882;23;20033;-47
2023/06/12 05:44:20;;;;;;;4.70;2.58;;;;;;;;;;6182060;23;20020;-48
2023/06/12 05:46:51;;;;;;;4.97;2.50;;;;;;;;;;6207939;23;20021;-50
2023/06/12 05:49:19;;;;;;;6.00;2.58;;;;;;;;;;6204817;23;20031;-57
2023/06/12 05:51:53;;;;;;;8.27;2.80;;;;;;;;;;6203102;23;20641;-57
2023/06/12 05:54:26;;;;;;;3.80;3.00;;;;;;;;;;6206466;23;20020;-59
2023/06/12 05:57:02;;;;;;;6.60;2.42;;;;;;;;;;6203716;23;20383;-59
2023/06/12 05:59:29;;;;;;;8.07;2.42;;;;;;;;;;6207297;23;20092;-50
2023/06/12 06:01:57;;;;;;;4.25;2.47;;;;;;;;;;6202614;23;20032;-58
2023/06/12 06:04:31;;;;;;;4.22;2.20;;;;;;;;;;6206751;23;20032;-48
2023/06/12 06:06:58;;;;;;;4.50;2.30;;;;;;;;;;6206625;23;20084;-53
2023/06/12 06:09:44;;;;;;;4.53;2.28;;;;;;;;;;6205361;23;20067;-53
2023/06/12 06:12:11;;;;;;;3.60;2.13;;;;;;;;;;6207246;23;20020;-49
2023/06/12 06:14:45;;;;;;;8.27;2.40;;;;;;;;;;6206366;23;20071;-54
2023/06/12 06:17:12;;;;;;;5.63;2.53;;;;;;;;;;6205452;23;20374;-51
2023/06/12 06:19:39;;;;;;;5.10;2.42;;;;;;;;;;6207139;23;20122;-47
2023/06/12 06:22:14;;;;;;;4.78;2.40;;;;;;;;;;6208158;23;20095;-44
2023/06/12 06:24:41;;;;;;;5.40;2.30;;;;;;;;;;6206739;23;20458;-47
2023/06/12 06:27:16;;;;;;;5.53;2.35;;;;;;;;;;6207572;23;20029;-45
2023/06/12 06:29:43;;;;;;;8.32;2.60;;;;;;;;;;6206929;23;20060;-47
2023/06/12 06:32:10;;;;;;;9.68;2.40;;;;;;;;;;6177048;23;20091;-54
2023/06/12 06:34:44;;;;;;;11.63;2.55;;;;;;;;;;6207853;23;20025;-49
2023/06/12 06:37:12;;;;;;;5.60;2.80;;;;;;;;;;6203128;23;20029;-51
2023/06/12 06:39:46;;;;;;;3.92;2.28;;;;;;;;;;6207435;23;20017;-49
2023/06/12 06:42:13;;;;;;;6.45;2.75;;;;;;;;;;6205606;23;20075;-47
2023/06/12 06:44:40;;;;;;;5.30;2.33;;;;;;;;;;6207598;23;20768;-49
2023/06/12 06:47:15;;;;;;;4.40;2.17;;;;;;;;;;6208041;23;20025;-46
2023/06/12 06:49:42;;;;;;;8.45;2.60;;;;;;;;;;6205095;23;20031;-47
2023/06/12 06:52:19;;;;;;;6.60;2.40;;;;;;;;;;6207670;23;20079;-48
2023/06/12 06:55:00;;;;;;;8.25;2.40;;;;;;;;;;6207110;23;20028;-50
2023/06/12 06:57:36;;;;;;;4.75;2.50;;;;;;;;;;6206657;23;20028;-53
2023/06/12 07:00:08;;;;;;;7.82;2.33;;;;;;;;;;6205385;23;20455;-51
2023/06/12 07:02:43;;;;;;;6.82;2.58;;;;;;;;;;6205612;23;20031;-52
2023/06/12 07:05:10;;;;;;;6.55;2.50;;;;;;;;;;6208392;23;20100;-51
2023/06/12 07:07:45;;;;;;;7.43;2.40;;;;;;;;;;6206516;23;20021;-50
2023/06/12 07:10:27;;;;;;;6.50;2.42;;;;;;;;;;6206691;23;20028;-49
2023/06/12 07:12:58;;;;;;;4.22;2.28;;;;;;;;;;6208825;23;20543;-53
2023/06/12 07:15:31;;;;;;;5.15;2.15;;;;;;;;;;6208394;23;20028;-59
2023/06/12 07:17:59;;;;;;;3.85;2.20;;;;;;;;;;6208339;23;20025;-60
2023/06/12 07:20:26;;;;;;;4.50;2.40;;;;;;;;;;6207946;23;20025;-59
2023/06/12 07:23:00;;;;;;;5.25;2.35;;;;;;;;;;6207963;23;20537;-60
2023/06/12 07:25:27;;;;;;;3.83;2.40;;;;;;;;;;6208792;23;20478;-45
2023/06/12 07:28:07;;;;;;;8.75;2.15;;;;;;;;;;6208321;23;20434;-44
2023/06/12 07:30:35;;;;;;;4.20;2.30;;;;;;;;;;6206442;23;20017;-48
2023/06/12 07:33:10;;;;;;;5.85;2.42;;;;;;;;;;6208080;23;20075;-47
2023/06/12 07:35:37;;;;;;;7.47;2.25;;;;;;;;;;6207009;23;20020;-46
2023/06/12 07:38:05;;;;;;;6.60;2.55;;;;;;;;;;6207488;23;20747;-47
2023/06/12 07:40:39;;;;;;;3.50;2.30;;;;;;;;;;6205072;23;20111;-46
2023/06/12 07:43:06;;;;;;;3.13;1.85;;;;;;;;;;6209213;23;20021;-53
2023/06/12 07:45:40;;;;;;;4.95;2.20;;;;;;;;;;6207843;23;20024;-48
2023/06/12 07:48:13;;;;;;;5.57;2.10;;;;;;;;;;6208026;23;20340;-54
2023/06/12 07:50:48;;;;;;;6.05;2.30;;;;;;;;;;6209140;23;20027;-52
2023/06/12 07:53:27;;;;;;;7.65;2.33;;;;;;;;;;6206969;23;20083;-45
2023/06/12 07:56:06;;;;;;;6.53;2.08;;;;;;;;;;6208279;23;20017;-50
2023/06/12 07:58:35;;;;;;;3.35;2.30;;;;;;;;;;6207811;23;20024;-51
2023/06/12 08:01:10;;;;;;;4.78;2.30;;;;;;;;;;6202983;23;20024;-47
2023/06/12 08:03:43;;;;;;;9.80;2.30;;;;;;;;;;6208279;23;20020;-50
2023/06/12 08:06:18;;;;;;;6.03;2.10;;;;;;;;;;6207467;23;21030;-52
2023/06/12 08:08:45;;;;;;;;;;;;;;;;;;6204125;23;20134;-52
2023/06/12 08:11:13;;;;;;;4.25;1.90;;;;;;;;;;6207383;23;19920;-49
2023/06/12 08:13:47;;;;;;;6.13;2.30;;;;;;;;;;6208599;23;20090;-46
2023/06/12 08:16:14;;;;;;;7.22;2.35;;;;;;;;;;6206505;23;20024;-48
2023/06/12 08:18:48;;;;;;;4.90;2.42;;;;;;;;;;6206885;23;20027;-45
2023/06/12 08:21:15;;;;;;;4.95;2.28;;;;;;;;;;6206510;23;20021;-50
2023/06/12 08:23:42;;;;;;;4.38;2.28;;;;;;;;;;6207610;23;20030;-55
2023/06/12 08:26:16;;;;;;;3.92;2.03;;;;;;;;;;6182499;23;20028;-55
2023/06/12 08:28:43;;;;;;;;;;;;;;;;;;6208886;23;20017;-51
2023/06/12 08:31:10;;;;;;;9.05;2.50;;;;;;;;;;6204607;23;19947;-54
2023/06/12 08:33:45;;;;;;;7.05;2.05;;;;;;;;;;6207869;23;20043;-54
2023/06/12 08:36:12;;;;;;;2.63;2.00;;;;;;;;;;6207292;23;20025;-53
2023/06/12 08:38:46;;;;;;;7.65;2.20;;;;;;;;;;6206142;23;20031;-53
2023/06/12 08:41:17;;;;;;;6.18;2.50;;;;;;;;;;6206032;23;20025;-59
2023/06/12 08:43:45;;;;;;;3.00;2.20;;;;;;;;;;6208909;23;20029;-59
2023/06/12 08:46:20;;;;;;;7.18;2.47;;;;;;;;;;6205798;23;20024;-60
2023/06/12 08:48:48;;;;;;;;;;;;;;;;;;6208541;23;20025;-60
2023/06/12 08:51:15;;;;;;;5.40;2.15;;;;;;;;;;6207751;23;19970;-54
2023/06/12 08:53:57;;;;;;;3.35;2.10;;;;;;;;;;6209064;23;20114;-49
2023/06/12 08:56:25;;;;;;;5.30;2.50;;;;;;;;;;6207259;23;20032;-47
2023/06/12 08:59:00;;;;;;;3.60;1.98;;;;;;;;;;6207457;23;20043;-50
2023/06/12 09:01:29;;;;;;;5.65;2.20;;;;;;;;;;6207544;23;20025;-48
2023/06/12 09:04:00;;;;;;;5.13;2.20;;;;;;;;;;6207454;23;20017;-50
2023/06/12 09:06:36;;;;;;;9.98;2.45;;;;;;;;;;6207295;23;20059;-51
2023/06/12 09:09:04;;;;;;;7.93;2.53;;;;;;;;;;6207624;23;20020;-51
2023/06/12 09:11:31;;;;;;;;;;;;;;;;;;6181770;23;20402;-56
2023/06/12 09:14:05;;;;;;;3.40;2.35;;;;;;;;;;6207565;23;19974;-56
2023/06/12 09:16:38;;;;;;;4.60;2.50;;;;;;;;;;6206182;23;20020;-52
2023/06/12 09:19:07;;;;;;;5.30;2.40;;;;;;;;;;6207083;23;20059;-58
2023/06/12 09:21:36;;;;;;;4.95;2.10;;;;;;;;;;6206961;23;20058;-58
2023/06/12 09:24:10;;;;;;;3.08;1.90;;;;;;;;;;6206817;23;20463;-49
2023/06/12 09:26:39;;;;;;;;;;;;;;;;;;6208329;23;20028;-46
2023/06/12 09:29:14;;;;;;;3.67;2.47;;;;;;;;;;6207353;23;19920;-50
2023/06/12 09:31:41;;;;;;;7.28;2.00;;;;;;;;;;6207863;23;20079;-46
2023/06/12 09:34:08;;;;;;;;;;;;;;;;;;6207253;23;20032;-50
2023/06/12 09:36:42;;;;;;;5.72;2.10;;;;;;;;;;6209060;23;19967;-49
2023/06/12 09:39:15;;;;;;;5.53;2.00;;;;;;;;;;6207480;23;20029;-58
2023/06/12 09:41:49;;;;;;;4.28;2.00;;;;;;;;;;6208064;23;20265;-58
2023/06/12 09:44:22;;;;;;;4.18;2.03;;;;;;;;;;6207446;23;20021;-59
2023/06/12 09:47:06;;;;;;;7.00;2.17;;;;;;;;;;6208011;23;20025;-47
2023/06/12 09:49:37;;;;;;;5.15;2.50;;;;;;;;;;6207454;23;20023;-63
2023/06/12 09:52:12;;;;;;;2.95;2.13;;;;;;;;;;6205629;23;20029;-63
2023/06/12 09:54:47;;;;;;;3.47;1.92;;;;;;;;;;6191940;23;20059;-63
2023/06/12 09:57:28;;;;;;;4.32;1.70;;;;;;;;;;6208084;23;20118;-62
2023/06/12 09:59:57;;;;;;;3.15;1.90;;;;;;;;;;6205933;23;20332;-64
2023/06/12 10:02:31;;;;;;;2.90;1.90;;;;;;;;;;6207397;23;20020;-63
2023/06/12 10:05:25;;;;;;;3.30;2.30;;;;;;;;;;6207682;23;20573;-63
2023/06/12 10:07:59;;;;;;;7.15;2.28;;;;;;;;;;6207411;23;20661;-49
2023/06/12 10:10:27;;;;;;;5.53;2.08;;;;;;;;;;6207595;23;20067;-49
2023/06/12 10:12:54;;;;;;;3.63;2.00;;;;;;;;;;6206192;23;20028;-52
2023/06/12 10:15:30;;;;;;;6.65;2.20;;;;;;;;;;6208398;23;20024;-48
2023/06/12 10:17:58;;;;;;;4.28;2.13;;;;;;;;;;6207846;23;20024;-51
2023/06/12 10:20:32;;;;;;;6.53;2.00;;;;;;;;;;6201570;23;20403;-53
2023/06/12 10:22:59;;;;;;;10.95;2.00;;;;;;;;;;6207630;23;20028;-54
2023/06/12 10:25:27;;;;;;;8.70;2.08;;;;;;;;;;6206511;23;20020;-49
2023/06/12 10:28:01;;;;;;;5.18;2.03;;;;;;;;;;6206687;23;20470;-46
2023/06/12 10:30:29;;;;;;;5.22;1.85;;;;;;;;;;6207498;23;20024;-49
2023/06/12 10:33:08;;;;;;;3.05;1.88;;;;;;;;;;6206894;23;20410;-50
2023/06/12 10:35:35;;;;;;;2.85;1.98;;;;;;;;;;6207886;23;20036;-64
2023/06/12 10:38:13;;;;;;;3.72;1.75;;;;;;;;;;6209167;23;20028;-63
2023/06/12 10:40:50;;;;;;;6.15;2.00;;;;;;;;;;6208941;23;20506;-64
2023/06/12 10:43:21;;;;;;;5.65;1.92;;;;;;;;;;6208964;23;20488;-64
2023/06/12 10:45:58;;;;;;;8.05;2.13;;;;;;;;;;6210309;23;20418;-60
2023/06/12 10:48:26;;;;;;;4.18;2.00;;;;;;;;;;6209357;23;20025;-49
2023/06/12 10:51:00;;;;;;;6.57;1.98;;;;;;;;;;6208101;23;20029;-49
2023/06/12 10:53:27;;;;;;;;;;;;;;;;;;6208765;23;20355;-48
2023/06/12 10:56:11;;;;;;;5.57;2.10;;;;;;;;;;6208346;23;19920;-45
2023/06/12 10:58:42;;;;;;;3.30;1.90;;;;;;;;;;6208639;23;20025;-50
2023/06/12 11:01:17;;;;;;;4.53;2.05;;;;;;;;;;6209754;23;20017;-48
2023/06/12 11:03:44;;;;;;;4.85;1.60;;;;;;;;;;6205821;23;20027;-50
2023/06/12 11:06:20;;;;;;;2.92;1.83;;;;;;;;;;6178803;23;20095;-47
2023/06/12 11:08:54;;;;;;;4.18;1.98;;;;;;;;;;6206377;23;20031;-53
2023/06/12 11:11:28;;;;;;;3.20;1.83;;;;;;;;;;6207023;23;20067;-48
2023/06/12 11:13:55;;;;;;;;;;;;;;;;;;6208291;23;20706;-60
2023/06/12 11:16:26;;;;;;;3.15;1.90;;;;;;;;;;6209304;23;20234;-52
2023/06/12 11:19:04;;;;;;;5.28;1.58;;;;;;;;;;6207544;23;20067;-47
2023/06/12 11:21:32;;;;;;;7.55;1.90;;;;;;;;;;6208584;23;20021;-47
2023/06/12 11:24:10;;;;;;;5.97;1.60;;;;;;;;;;6208485;23;20024;-44
2023/06/12 11:26:38;;;;;;;3.35;1.70;;;;;;;;;;6207132;23;20024;-47
2023/06/12 11:29:05;;;;;;;;;;;;;;;;;;6209123;23;20021;-49
2023/06/12 11:31:46;;;;;;;2.33;1.70;;;;;;;;;;6209896;23;19916;-52
2023/06/12 11:34:14;;;;;;;4.63;1.85;;;;;;;;;;6208708;23;20043;-45
2023/06/12 11:36:48;;;;;;;2.40;1.80;;;;;;;;;;6209158;23;20075;-51
2023/06/12 11:39:15;;;;;;;;;;;;;;;;;;6209051;23;20064;-49
2023/06/12 11:41:49;;;;;;;5.15;1.90;;;;;;;;;;6208147;23;20532;-59
2023/06/12 11:44:23;;;;;;;3.58;1.90;;;;;;;;;;6209660;23;20025;-63
2023/06/12 11:47:00;;;;;;;5.75;2.10;;;;;;;;;;6208370;23;20094;-64
2023/06/12 11:49:32;;;;;;;4.78;2.05;;;;;;;;;;6218598;23;20028;-64
2023/06/12 11:52:06;;;;;;;4.03;1.77;;;;;;;;;;6208572;23;20028;-64
2023/06/12 11:55:00;;;;;;;4.22;1.70;;;;;;;;;;6208138;23;20020;-64
2023/06/12 11:57:37;;;;;;;3.97;1.92;;;;;;;;;;6208905;23;20602;-64
2023/06/12 12:00:12;;;;;;;3.83;1.90;;;;;;;;;;6208677;23;20086;-45
2023/06/12 12:02:49;;;;;;;5.07;2.00;;;;;;;;;;6206788;23;20020;-45
2023/06/12 12:05:23;;;;;;;5.82;1.80;;;;;;;;;;6207245;23;20071;-45
2023/06/12 12:07:56;;;;;;;3.13;1.50;;;;;;;;;;6207674;23;20024;-47
2023/06/12 12:10:31;;;;;;;6.28;1.90;;;;;;;;;;6208085;23;20121;-51
2023/06/12 12:13:00;;;;;;;3.85;1.70;;;;;;;;;;6206876;23;20025;-64
2023/06/12 12:15:35;;;;;;;4.03;1.90;;;;;;;;;;6208501;23;20079;-64
2023/06/12 12:18:02;;;;;;;2.05;1.30;;;;;;;;;;6207746;23;20104;-63
2023/06/12 12:20:36;;;;;;;7.72;1.98;;;;;;;;;;6206589;23;20024;-64
2023/06/12 12:23:07;;;;;;;;;;;;;;;;;;6207512;23;20462;-63
2023/06/12 12:25:35;;;;;;;3.92;1.80;;;;;;;;;;6204025;23;20292;-64
2023/06/12 12:28:09;;;;;;;6.20;2.13;;;;;;;;;;6209228;23;20090;-50
2023/06/12 12:30:36;;;;;;;;;;;;;;;;;;6203643;23;20470;-47
2023/06/12 12:33:10;;;;;;;7.93;2.00;;;;;;;;;;6203160;23;20561;-51
2023/06/12 12:35:37;;;;;;;;;;;;;;;;;;6209088;23;20020;-48
2023/06/12 12:38:04;;;;;;;8.63;1.90;;;;;;;;;;6203536;23;19920;-49
2023/06/12 12:40:39;;;;;;;4.28;1.88;;;;;;;;;;6206052;23;20024;-59
2023/06/12 12:43:06;;;;;;;3.72;2.13;;;;;;;;;;6207627;23;20350;-64
2023/06/12 12:45:40;;;;;;;2.10;1.90;;;;;;;;;;6206759;23;20078;-64
2023/06/12 12:48:07;;;;;;;9.52;2.13;;;;;;;;;;6206894;23;20028;-64
2023/06/12 12:50:34;;;;;;;;;;;;;;;;;;6209660;23;20020;-64
2023/06/12 12:53:23;;;;;;;7.20;2.15;;;;;;;;;;6207535;23;20330;-64
2023/06/12 12:55:56;;;;;;;2.47;1.90;;;;;;;;;;6205572;23;20544;-64
2023/06/12 12:58:31;;;;;;;3.15;1.63;;;;;;;;;;6207833;23;20559;-54
2023/06/12 13:00:59;;;;;;;4.72;1.90;;;;;;;;;;6206549;23;20664;-56
2023/06/12 13:03:32;;;;;;;3.47;1.80;;;;;;;;;;6206936;23;20032;-53
2023/06/12 13:06:07;;;;;;;4.88;1.92;;;;;;;;;;6205811;23;20079;-48
2023/06/12 13:08:37;;;;;;;3.67;2.15;;;;;;;;;;6207590;23;20028;-50
2023/06/12 13:11:11;;;;;;;2.92;2.13;;;;;;;;;;6206088;23;20024;-60
2023/06/12 13:13:38;;;;;;;2.78;2.20;;;;;;;;;;6206342;23;20808;-59
2023/06/12 13:16:05;;;;;;;;;;;;;;;;;;6208365;23;20032;-59
2023/06/12 13:18:45;;;;;;;2.47;1.73;;;;;;;;;;6207486;23;19919;-59
2023/06/12 13:21:13;;;;;;;3.78;1.60;;;;;;;;;;6207039;23;20400;-60
2023/06/12 13:23:47;;;;;;;5.40;1.92;;;;;;;;;;6207065;23;20024;-60
2023/06/12 13:26:14;;;;;;;4.90;2.05;;;;;;;;;;6207097;23;20032;-49
2023/06/12 13:28:41;;;;;;;7.15;2.03;;;;;;;;;;6205988;23;20024;-53
2023/06/12 13:31:15;;;;;;;3.05;1.65;;;;;;;;;;6206038;23;20079;-48
2023/06/12 13:33:42;;;;;;;4.47;1.92;;;;;;;;;;6205934;23;20430;-46
2023/06/12 13:36:16;;;;;;;2.22;1.90;;;;;;;;;;6204471;23;20406;-51
2023/06/12 13:38:43;;;;;;;8.48;2.28;;;;;;;;;;6207241;23;20402;-49
2023/06/12 13:41:12;;;;;;;2.83;2.00;;;;;;;;;;6206893;23;20079;-47
2023/06/12 13:43:46;;;;;;;5.38;2.05;;;;;;;;;;6207724;23;20024;-47
2023/06/12 13:46:13;;;;;;;;;;;;;;;;;;6206781;23;20027;-48
2023/06/12 13:48:47;;;;;;;3.17;1.77;;;;;;;;;;6206374;23;19995;-50
2023/06/12 13:51:14;;;;;;;;;;;;;;;;;;6209217;23;20095;-49
2023/06/12 13:53:41;;;;;;;5.78;2.10;;;;;;;;;;6207670;23;20424;-54
2023/06/12 13:56:22;;;;;;;6.45;1.98;;;;;;;;;;6177830;23;20347;-48
2023/06/12 13:58:49;;;;;;;2.67;2.08;;;;;;;;;;6178366;23;20025;-53
2023/06/12 14:01:25;;;;;;;4.20;2.10;;;;;;;;;;6176845;23;20029;-49
2023/06/12 14:03:53;;;;;;;;;;;;;;;;;;6176497;23;20029;-50
2023/06/12 14:06:26;;;;;;;2.10;1.75;;;;;;;;;;6175549;23;19927;-50
2023/06/12 14:09:00;;;;;;;2.38;1.80;;;;;;;;;;6176636;23;20028;-49
2023/06/12 14:11:27;;;;;;;4.03;2.10;;;;;;;;;;6177819;23;20021;-50
2023/06/12 14:13:56;;;;;;;2.42;2.00;;;;;;;;;;6180682;23;20021;-49
2023/06/12 14:16:30;;;;;;;2.78;2.03;;;;;;;;;;6175910;23;20025;-50
2023/06/12 14:18:57;;;;;;;2.95;1.85;;;;;;;;;;6176094;23;20649;-45
2023/06/12 14:21:25;;;;;;;;;;;;;;;;;;6180011;23;20108;-63
2023/06/12 14:24:01;;;;;;;2.75;1.90;;;;;;;;;;6178240;23;19920;-64
2023/06/12 14:26:29;;;;;;;2.17;1.80;;;;;;;;;;6178932;23;20542;-63
2023/06/12 14:29:03;;;;;;;2.13;1.92;;;;;;;;;;6178671;23;20463;-64
2023/06/12 14:31:30;;;;;;;;;;;;;;;;;;6178825;23;20071;-64
2023/06/12 14:33:57;;;;;;;3.25;2.10;;;;;;;;;;6178266;23;19924;-45
2023/06/12 14:36:31;;;;;;;2.13;1.80;;;;;;;;;;6178908;23;20029;-54
2023/06/12 14:38:58;;;;;;;5.43;1.90;;;;;;;;;;6178269;23;20083;-56
2023/06/12 14:41:25;;;;;;;;;;;;;;;;;;6173984;23;20901;-55
2023/06/12 14:43:59;;;;;;;2.05;1.80;;;;;;;;;;6176434;23;20596;-54
2023/06/12 14:46:26;;;;;;;;;;;;;;;;;;6177697;23;20029;-54
2023/06/12 14:49:00;;;;;;;4.13;2.08;;;;;;;;;;6180512;23;19963;-52
2023/06/12 14:51:27;;;;;;;;;;;;;;;;;;6176299;23;20025;-54
2023/06/12 14:53:54;;;;;;;2.22;2.03;;;;;;;;;;6177107;23;19920;-56
2023/06/12 14:56:35;;;;;;;4.05;1.92;;;;;;;;;;6210244;23;20029;-54
2023/06/12 14:59:02;;;;;;;3.88;2.08;;;;;;;;;;6209005;23;20021;-56
2023/06/12 15:01:36;;;;;;;2.00;1.80;;;;;;;;;;6207930;23;20028;-56
2023/06/12 15:04:03;;;;;;;;;;;;;;;;;;6209113;23;20481;-56
2023/06/12 15:06:37;;;;;;;3.53;1.90;;;;;;;;;;6208251;23;19966;-57
2023/06/12 15:09:04;;;;;;;2.28;1.90;;;;;;;;;;6206811;23;20032;-57
2023/06/12 15:11:31;;;;;;;;;;;;;;;;;;6209143;23;20720;-54
2023/06/12 15:14:05;;;;;;;4.28;1.90;;;;;;;;;;6207240;23;20232;-53
2023/06/12 15:16:32;;;;;;;;;;;;;;;;;;6209665;23;20486;-53
2023/06/12 15:19:06;;;;;;;2.53;1.77;;;;;;;;;;6208368;23;19927;-60